Maritime Polaris — 9V2825 — position and weather

sailwx.info

Track history (hours):
 
Tides and Currents Weather Stations Pressure Air Temp Water Temp Dewpoint Dewpoint Depression Visibility Wind Speed Wind Dir Waves Ship Positions

Maritime Polaris

Last reported at 2018-Feb-09 00:00 UTC. Time now 2018-Feb-24 03:42 UTC.
Position N 01°11' E 103°50'.
Warning: this ship's position is 15 days out of date.

Length 183 m; draft 10.8 m.

Type: Tanker. MMSI: 566762000.

Date/timePositionNaut miles runAvg speedWind from/ knotsBaromVisibWave heightAir tempDewpointWater temp
2018-Feb-09 00:00N 01°11' E 103°50'  
2018-Feb-02 03:37N 22°25' E 119°44'313.0
2018-Feb-02 03:21N 22°27' E 119°46'1212.1
2018-Feb-02 02:22N 22°39' E 119°51'612.4
2018-Feb-02 01:53N 22°44' E 119°51'1911.6
2018-Feb-02 00:12N 23°04' E 119°51'311.7
2018-Feb-01 23:58N 23°07' E 119°51'1212.0
2018-Feb-01 23:00N 23°18' E 119°52'1313.3
2018-Feb-01 22:00N 23°31' E 119°54'714.2
2018-Feb-01 21:30N 23°38' E 119°55'  
Track history (hours):
 
Tides and Currents Weather Stations Pressure Air Temp Water Temp Dewpoint Dewpoint Depression Visibility Wind Speed Wind Dir Waves Ship Positions

Maritime Polaris

Last reported at 2018-Feb-09 00:00 UTC. Time now 2018-Feb-24 03:42 UTC.
Position N 01°11' E 103°50'.
Warning: this ship's position is 15 days out of date.

Length 183 m; draft 10.8 m.

Type: Tanker. MMSI: 566762000.

Date/timePositionNaut miles runAvg speedWind from/ knotsBaromVisibWave heightAir tempDewpointWater temp
2018-Feb-09 00:00N 01°11' E 103°50'  
2018-Feb-02 03:37N 22°25' E 119°44'313.0
2018-Feb-02 03:21N 22°27' E 119°46'1212.1
2018-Feb-02 02:22N 22°39' E 119°51'612.4
2018-Feb-02 01:53N 22°44' E 119°51'1911.6
2018-Feb-02 00:12N 23°04' E 119°51'311.7
2018-Feb-01 23:58N 23°07' E 119°51'1212.0
2018-Feb-01 23:00N 23°18' E 119°52'1313.3
2018-Feb-01 22:00N 23°31' E 119°54'714.2
2018-Feb-01 21:30N 23°38' E 119°55'  

Dump ship's entire track history